createdAt,value
2022-09-20T00:00:00.171Z,1.90
2022-09-20T00:02:27.898Z,2.08
2022-09-20T00:04:54.259Z,2.38
2022-09-20T00:07:20.623Z,2.13
2022-09-20T00:12:13.185Z,2.80
2022-09-20T00:14:39.515Z,2.53
2022-09-20T00:17:06.012Z,2.60
2022-09-20T00:19:32.417Z,2.22
2022-09-20T00:21:58.751Z,2.58
2022-09-20T00:24:25.522Z,2.13
2022-09-20T00:26:51.849Z,2.28
2022-09-20T00:29:18.215Z,2.20
2022-09-20T00:31:44.555Z,2.53
2022-09-20T00:34:12.434Z,2.72
2022-09-20T00:36:38.763Z,2.60
2022-09-20T00:39:05.124Z,2.60
2022-09-20T00:41:32.674Z,3.03
2022-09-20T00:43:59.211Z,2.85
2022-09-20T00:46:43.354Z,3.13
2022-09-20T00:49:20.940Z,2.70
2022-09-20T00:51:51.179Z,2.50
2022-09-20T00:54:20.652Z,2.45
2022-09-20T00:56:47.421Z,2.72
2022-09-20T00:59:27.211Z,2.60
2022-09-20T01:02:04.009Z,2.42
2022-09-20T01:04:30.610Z,2.35
2022-09-20T01:07:02.112Z,2.00
2022-09-20T01:09:28.552Z,2.50
2022-09-20T01:11:56.971Z,2.10
2022-09-20T01:14:26.045Z,2.50
2022-09-20T01:16:55.332Z,2.10
2022-09-20T01:19:42.817Z,2.42
2022-09-20T01:22:23.534Z,2.35
2022-09-20T01:25:04.842Z,2.28
2022-09-20T01:27:52.218Z,2.88
2022-09-20T01:30:20.403Z,2.53
2022-09-20T01:33:10.683Z,2.13
2022-09-20T01:38:48.483Z,2.58
2022-09-20T01:41:30.807Z,3.05
2022-09-20T01:44:21.408Z,2.50
2022-09-20T01:46:56.140Z,2.45
2022-09-20T01:49:35.725Z,3.20
2022-09-20T01:52:20.782Z,3.47
2022-09-20T01:55:11.613Z,3.50
2022-09-20T01:58:10.312Z,3.25
2022-09-20T02:00:57.709Z,3.30
2022-09-20T02:03:54.070Z,3.20
2022-09-20T02:09:42.020Z,2.92
2022-09-20T02:12:33.934Z,3.25
2022-09-20T02:15:36.607Z,3.08
2022-09-20T02:18:36.272Z,3.22
2022-09-20T02:21:44.237Z,2.83
2022-09-20T02:24:32.155Z,3.10
2022-09-20T02:27:14.210Z,2.85
2022-09-20T02:29:58.583Z,2.75
2022-09-20T02:32:51.298Z,2.95
2022-09-20T02:35:55.369Z,2.75
2022-09-20T02:38:53.826Z,2.63
2022-09-20T02:41:55.834Z,2.53
2022-09-20T02:44:56.387Z,2.70
2022-09-20T02:47:32.427Z,3.20
2022-09-20T02:50:33.927Z,2.67
2022-09-20T02:53:40.818Z,2.80
2022-09-20T02:56:19.319Z,2.40
2022-09-20T02:58:53.093Z,2.25
2022-09-20T03:01:46.518Z,2.42
2022-09-20T03:04:56.922Z,2.28
2022-09-20T03:07:38.528Z,2.40
2022-09-20T03:10:21.528Z,2.40
2022-09-20T03:13:27.067Z,2.50
2022-09-20T03:16:13.012Z,2.50
2022-09-20T03:19:04.720Z,2.60
2022-09-20T03:21:46.394Z,2.40
2022-09-20T03:24:18.885Z,2.20
2022-09-20T03:27:05.133Z,3.10
2022-09-20T03:29:58.460Z,2.60
2022-09-20T03:32:52.739Z,2.78
2022-09-20T03:35:57.328Z,2.20
2022-09-20T03:38:45.177Z,2.33
2022-09-20T03:41:25.642Z,2.15
2022-09-20T03:44:19.517Z,2.50
2022-09-20T03:46:47.571Z,2.38
2022-09-20T03:49:43.728Z,2.33
2022-09-20T03:52:40.308Z,2.45
2022-09-20T03:55:12.326Z,2.50
2022-09-20T03:57:47.687Z,2.53
2022-09-20T04:00:55.313Z,2.67
2022-09-20T04:03:30.871Z,2.50
2022-09-20T04:06:13.579Z,2.60
2022-09-20T04:08:58.548Z,2.83
2022-09-20T04:11:37.407Z,2.55
2022-09-20T04:14:16.207Z,2.70
2022-09-20T04:17:00.731Z,2.80
2022-09-20T04:19:39.241Z,2.58
2022-09-20T04:22:05.906Z,2.50
2022-09-20T04:24:44.436Z,2.67
2022-09-20T04:27:31.862Z,2.90
2022-09-20T04:30:03.324Z,3.00
2022-09-20T04:32:41.695Z,3.05
2022-09-20T04:35:41.437Z,2.40
2022-09-20T04:38:16.346Z,2.63
2022-09-20T04:41:09.953Z,2.60
2022-09-20T04:43:45.272Z,2.83
2022-09-20T04:46:56.269Z,2.83
2022-09-20T04:49:25.742Z,2.92
2022-09-20T04:52:27.313Z,3.05
2022-09-20T04:55:15.221Z,2.80
2022-09-20T04:58:14.517Z,2.83
2022-09-20T05:01:05.146Z,2.88
2022-09-20T05:04:05.700Z,2.95
2022-09-20T05:07:04.243Z,2.92
2022-09-20T05:09:42.798Z,3.30
2022-09-20T05:12:35.615Z,2.67
2022-09-20T05:15:29.174Z,3.10
2022-09-20T05:18:17.968Z,2.65
2022-09-20T05:21:09.059Z,2.53
2022-09-20T05:24:04.015Z,2.63
2022-09-20T05:26:33.191Z,2.70
2022-09-20T05:29:14.065Z,2.95
2022-09-20T05:32:08.431Z,3.00
2022-09-20T05:34:49.306Z,2.80
2022-09-20T05:37:40.766Z,2.38
2022-09-20T05:40:28.428Z,2.47
2022-09-20T05:43:11.455Z,2.72
2022-09-20T05:46:09.798Z,2.67
2022-09-20T05:49:03.825Z,2.65
2022-09-20T05:52:00.791Z,2.78
2022-09-20T05:54:52.115Z,2.60
2022-09-20T05:57:39.861Z,2.40
2022-09-20T06:00:18.023Z,2.67
2022-09-20T06:03:09.316Z,2.65
2022-09-20T06:05:51.114Z,2.38
2022-09-20T06:08:38.834Z,2.50
2022-09-20T06:11:14.351Z,2.63
2022-09-20T06:13:49.202Z,2.70
2022-09-20T06:16:40.481Z,2.85
2022-09-20T06:19:25.829Z,3.00
2022-09-20T06:22:03.784Z,3.10
2022-09-20T06:26:58.854Z,2.40
2022-09-20T06:29:36.739Z,2.50
2022-09-20T06:32:03.149Z,1.90
2022-09-20T06:34:30.128Z,2.20
2022-09-20T06:37:40.017Z,2.00
2022-09-20T06:40:24.933Z,1.75
2022-09-20T06:42:51.321Z,1.95
2022-09-20T06:45:17.633Z,1.67
2022-09-20T06:47:43.926Z,2.00
2022-09-20T06:50:16.988Z,2.95
2022-09-20T06:52:44.175Z,1.90
2022-09-20T06:55:20.758Z,1.60
2022-09-20T06:57:47.183Z,1.80
2022-09-20T07:00:14.628Z,1.85
2022-09-20T07:02:41.412Z,1.60
2022-09-20T07:05:13.956Z,1.77
2022-09-20T07:07:40.435Z,1.40
2022-09-20T07:10:07.125Z,1.80
2022-09-20T07:12:33.438Z,1.58
2022-09-20T07:14:59.743Z,1.63
2022-09-20T07:17:26.054Z,1.40
2022-09-20T07:19:52.412Z,1.25
2022-09-20T07:22:18.705Z,1.83
2022-09-20T07:24:45.061Z,1.23
2022-09-20T07:27:12.368Z,1.10
2022-09-20T07:29:38.695Z,1.17
2022-09-20T07:32:05.172Z,1.30
2022-09-20T07:34:31.605Z,0.93
2022-09-20T07:36:58.062Z,1.45
2022-09-20T07:39:24.368Z,1.30
2022-09-20T07:41:50.693Z,1.13
2022-09-20T07:44:18.275Z,1.15
2022-09-20T07:46:44.613Z,1.25
2022-09-20T07:49:10.957Z,0.90
2022-09-20T07:51:37.281Z,1.15
2022-09-20T07:54:03.658Z,0.90
2022-09-20T07:56:29.963Z,1.05
2022-09-20T07:58:56.299Z,0.93
2022-09-20T08:01:22.744Z,0.90
2022-09-20T08:03:49.179Z,0.90
2022-09-20T08:06:15.551Z,1.00
2022-09-20T08:08:42.583Z,0.80
2022-09-20T08:11:11.953Z,0.80
2022-09-20T08:16:40.963Z,0.95
2022-09-20T08:19:07.490Z,0.82
2022-09-20T08:21:35.451Z,0.80
2022-09-20T08:24:02.045Z,0.90
2022-09-20T08:26:30.054Z,1.05
2022-09-20T08:28:58.365Z,0.73
2022-09-20T08:31:27.736Z,1.00
2022-09-20T08:33:54.469Z,1.13
2022-09-20T08:36:23.385Z,1.05
2022-09-20T08:41:57.091Z,1.10
2022-09-20T08:44:57.615Z,0.90
2022-09-20T08:47:58.465Z,0.82
2022-09-20T08:50:25.720Z,0.98
2022-09-20T08:53:00.238Z,0.85
2022-09-20T08:55:28.929Z,1.00
2022-09-20T08:57:57.508Z,0.88
2022-09-20T09:00:28.603Z,1.10
2022-09-20T09:02:57.490Z,0.70
2022-09-20T09:05:52.918Z,0.80
2022-09-20T09:08:23.956Z,0.90
2022-09-20T09:11:01.780Z,0.90
2022-09-20T09:14:12.463Z,0.85
2022-09-20T09:16:38.820Z,0.60
2022-09-20T09:19:33.209Z,0.80
2022-09-20T09:22:01.563Z,0.70
2022-09-20T09:24:28.615Z,1.13
2022-09-20T09:27:08.497Z,0.73
2022-09-20T09:29:35.128Z,0.80
2022-09-20T09:32:20.474Z,0.98
2022-09-20T09:34:46.841Z,0.80
2022-09-20T09:37:52.525Z,0.80
2022-09-20T09:40:19.485Z,0.90
2022-09-20T09:42:55.198Z,0.90
2022-09-20T09:45:33.336Z,1.00
2022-09-20T09:48:01.091Z,0.90
2022-09-20T09:50:31.214Z,1.00
2022-09-20T09:53:12.007Z,1.02
2022-09-20T09:56:13.891Z,0.90
2022-09-20T09:58:46.339Z,0.93
2022-09-20T10:01:42.443Z,1.00
2022-09-20T10:04:21.818Z,0.70
2022-09-20T10:06:55.796Z,0.90
2022-09-20T10:09:53.936Z,0.63
2022-09-20T10:12:37.385Z,0.90
2022-09-20T10:15:15.651Z,1.00
2022-09-20T10:18:04.527Z,0.93
2022-09-20T10:21:09.569Z,0.80
2022-09-20T10:24:04.240Z,0.70
2022-09-20T10:26:49.726Z,0.77
2022-09-20T10:29:34.684Z,1.00
2022-09-20T10:32:03.889Z,0.90
2022-09-20T10:34:45.174Z,0.82
2022-09-20T10:37:24.039Z,1.00
2022-09-20T10:40:17.154Z,0.80
2022-09-20T10:42:51.194Z,0.70
2022-09-20T10:48:44.973Z,0.80
2022-09-20T10:51:41.493Z,0.70
2022-09-20T10:54:31.191Z,0.57
2022-09-20T10:57:45.868Z,0.90
2022-09-20T11:00:31.808Z,0.60
2022-09-20T11:03:23.155Z,0.90
2022-09-20T11:06:20.433Z,0.80
2022-09-20T11:08:49.263Z,1.00
2022-09-20T11:11:29.698Z,0.70
2022-09-20T11:14:07.567Z,0.75
2022-09-20T11:16:41.076Z,0.90
2022-09-20T11:19:22.452Z,0.73
2022-09-20T11:22:07.540Z,0.98
2022-09-20T11:24:40.837Z,0.70
2022-09-20T11:27:15.662Z,0.90
2022-09-20T11:29:50.487Z,0.60
2022-09-20T11:32:30.404Z,0.80
2022-09-20T11:35:12.030Z,0.80
2022-09-20T11:37:45.805Z,0.90
2022-09-20T11:40:25.181Z,0.68
2022-09-20T11:42:52.603Z,0.73
2022-09-20T11:45:23.986Z,0.73
2022-09-20T11:47:58.656Z,0.60
2022-09-20T11:50:51.012Z,0.60
2022-09-20T11:53:54.975Z,0.85
2022-09-20T11:56:25.511Z,0.90
2022-09-20T11:58:57.881Z,1.02
2022-09-20T12:01:30.536Z,1.00
2022-09-20T12:04:27.947Z,0.73
2022-09-20T12:06:47.486Z,1.10
2022-09-20T12:09:28.957Z,0.93
2022-09-20T12:11:56.682Z,0.98
2022-09-20T12:14:29.413Z,1.05
2022-09-20T12:16:56.397Z,0.90
2022-09-20T12:19:31.892Z,0.88
2022-09-20T12:21:58.147Z,0.80
2022-09-20T12:24:26.644Z,0.90
2022-09-20T12:27:14.602Z,1.00
2022-09-20T12:29:46.924Z,0.90
2022-09-20T12:32:40.281Z,0.90
2022-09-20T12:35:37.398Z,0.68
2022-09-20T12:38:37.235Z,0.70
2022-09-20T12:41:14.451Z,0.85
2022-09-20T12:43:52.267Z,0.60
2022-09-20T12:46:39.575Z,1.33
2022-09-20T12:49:31.391Z,1.20
2022-09-20T12:51:57.778Z,0.70
2022-09-20T12:54:24.153Z,1.00
2022-09-20T12:56:50.474Z,0.90
2022-09-20T12:59:26.397Z,1.13
2022-09-20T13:01:52.779Z,0.70
2022-09-20T13:04:41.031Z,0.60
2022-09-20T13:07:32.010Z,0.75
2022-09-20T13:09:59.867Z,0.88
2022-09-20T13:12:26.469Z,0.65
2022-09-20T13:14:53.999Z,0.60
2022-09-20T13:17:27.596Z,0.50
2022-09-20T13:19:55.369Z,0.70
2022-09-20T13:22:37.972Z,0.75
2022-09-20T13:25:07.120Z,0.77
2022-09-20T13:27:37.919Z,0.70
2022-09-20T13:30:19.395Z,0.70
2022-09-20T13:32:46.439Z,0.70
2022-09-20T13:35:12.695Z,0.77
2022-09-20T13:37:46.934Z,0.60
2022-09-20T13:40:25.422Z,0.73
2022-09-20T13:43:12.994Z,0.75
2022-09-20T13:45:42.902Z,0.77
2022-09-20T13:48:09.857Z,0.60
2022-09-20T13:50:36.200Z,0.70
2022-09-20T13:53:27.868Z,0.60
2022-09-20T13:56:00.262Z,0.60
2022-09-20T13:58:29.746Z,0.40
2022-09-20T14:01:02.642Z,0.70
2022-09-20T14:03:30.554Z,0.60
2022-09-20T14:06:00.410Z,1.20
2022-09-20T14:08:31.549Z,0.57
2022-09-20T14:11:13.116Z,0.60
2022-09-20T14:13:51.459Z,0.40
2022-09-20T14:16:20.630Z,0.50
2022-09-20T14:18:48.385Z,0.70
2022-09-20T14:21:20.937Z,0.63
2022-09-20T14:23:58.872Z,0.70
2022-09-20T14:28:54.357Z,0.70
2022-09-20T14:31:31.398Z,0.60
2022-09-20T14:34:01.862Z,0.52
2022-09-20T14:36:30.484Z,0.68
2022-09-20T14:39:02.861Z,0.43
2022-09-20T14:41:40.794Z,0.57
2022-09-20T14:46:52.471Z,0.50
2022-09-20T14:49:32.322Z,0.50
2022-09-20T14:52:23.278Z,0.60
2022-09-20T14:55:02.966Z,0.50
2022-09-20T14:57:29.908Z,0.60
2022-09-20T14:59:56.451Z,0.40
2022-09-20T15:02:25.139Z,0.50
2022-09-20T15:04:54.631Z,0.60
2022-09-20T15:07:21.455Z,0.70
2022-09-20T15:09:47.803Z,0.40
2022-09-20T15:12:18.047Z,0.45
2022-09-20T15:14:44.968Z,0.95
2022-09-20T15:17:17.377Z,0.50
2022-09-20T15:19:43.974Z,0.50
2022-09-20T15:22:11.278Z,0.45
2022-09-20T15:24:38.414Z,1.27
2022-09-20T15:27:05.413Z,0.70
2022-09-20T15:29:31.974Z,0.40
2022-09-20T15:31:58.564Z,0.60
2022-09-20T15:34:24.921Z,0.50
2022-09-20T15:36:51.359Z,0.73
2022-09-20T15:39:17.693Z,0.55
2022-09-20T15:41:44.019Z,0.73
2022-09-20T15:44:10.874Z,0.47
2022-09-20T15:46:37.376Z,0.50
2022-09-20T15:49:04.584Z,0.57
2022-09-20T15:51:30.967Z,0.50
2022-09-20T15:54:00.237Z,0.60
2022-09-20T15:56:29.411Z,0.80
2022-09-20T15:59:01.150Z,0.50
2022-09-20T16:01:53.967Z,0.50
2022-09-20T16:04:20.390Z,0.60
2022-09-20T16:06:48.668Z,0.50
2022-09-20T16:09:15.037Z,0.65
2022-09-20T16:11:41.724Z,0.70
2022-09-20T16:14:08.210Z,0.95
2022-09-20T16:16:39.967Z,0.68
2022-09-20T16:19:06.706Z,0.60
2022-09-20T16:21:33.261Z,0.65
2022-09-20T16:24:00.195Z,0.60
2022-09-20T16:26:28.743Z,0.65
2022-09-20T16:28:55.213Z,0.85
2022-09-20T16:31:33.747Z,0.80
2022-09-20T16:34:01.616Z,0.73
2022-09-20T16:36:28.003Z,0.70
2022-09-20T16:38:54.654Z,0.75
2022-09-20T16:41:21.876Z,0.70
2022-09-20T16:43:48.406Z,0.52
2022-09-20T16:46:14.744Z,0.90
2022-09-20T16:48:41.100Z,0.80
2022-09-20T16:51:07.424Z,0.80
2022-09-20T16:53:33.944Z,1.02
2022-09-20T16:56:00.422Z,0.60
2022-09-20T16:58:28.578Z,0.80
2022-09-20T17:01:02.931Z,0.52
2022-09-20T17:03:29.463Z,0.90
2022-09-20T17:06:03.242Z,0.90
2022-09-20T17:08:29.555Z,0.70
2022-09-20T17:11:00.220Z,0.88
2022-09-20T17:13:30.097Z,0.90
2022-09-20T17:16:01.760Z,1.10
2022-09-20T17:18:28.112Z,1.00
2022-09-20T17:20:54.454Z,0.90
2022-09-20T17:23:20.853Z,0.88
2022-09-20T17:25:47.351Z,0.80
2022-09-20T17:28:14.163Z,0.90
2022-09-20T17:30:40.475Z,1.00
2022-09-20T17:33:07.252Z,0.90
2022-09-20T17:35:33.605Z,1.50
2022-09-20T17:37:59.917Z,0.88
2022-09-20T17:40:26.264Z,1.00
2022-09-20T17:42:52.614Z,1.15
2022-09-20T17:45:18.898Z,1.00
2022-09-20T17:47:45.203Z,1.00
2022-09-20T17:50:11.526Z,1.00
2022-09-20T17:52:37.850Z,1.50
2022-09-20T17:55:04.485Z,1.20
2022-09-20T17:57:30.816Z,1.00
2022-09-20T17:59:57.103Z,1.10
2022-09-20T18:02:23.391Z,0.90
2022-09-20T18:04:49.715Z,1.00
2022-09-20T18:07:16.054Z,0.93
2022-09-20T18:09:42.382Z,0.90
2022-09-20T18:12:08.708Z,1.30
2022-09-20T18:14:35.008Z,1.65
2022-09-20T18:17:01.634Z,1.13
2022-09-20T18:19:28.511Z,1.10
2022-09-20T18:21:54.806Z,1.10
2022-09-20T18:24:21.119Z,1.30
2022-09-20T18:26:47.490Z,1.10
2022-09-20T18:29:15.593Z,0.93
2022-09-20T18:31:53.325Z,1.23
2022-09-20T18:34:24.716Z,1.55
2022-09-20T18:36:53.370Z,2.22
2022-09-20T18:39:28.370Z,2.30
2022-09-20T18:41:55.197Z,2.75
2022-09-20T18:44:22.797Z,2.47
2022-09-20T18:46:49.905Z,2.40
2022-09-20T18:49:16.322Z,2.63
2022-09-20T18:51:44.150Z,2.30
2022-09-20T18:54:12.063Z,2.40
2022-09-20T18:56:43.081Z,2.33
2022-09-20T18:59:16.512Z,2.30
2022-09-20T19:01:53.350Z,2.42
2022-09-20T19:04:51.590Z,2.45
2022-09-20T19:07:33.896Z,2.33
2022-09-20T19:10:06.344Z,1.88
2022-09-20T19:12:37.292Z,2.40
2022-09-20T19:15:21.663Z,2.00
2022-09-20T19:17:56.641Z,2.05
2022-09-20T19:20:38.571Z,1.88
2022-09-20T19:23:26.881Z,1.58
2022-09-20T19:26:23.486Z,1.88
2022-09-20T19:28:54.774Z,1.80
2022-09-20T19:31:25.625Z,2.10
2022-09-20T19:33:53.277Z,1.52
2022-09-20T19:36:20.373Z,2.22
2022-09-20T19:39:03.060Z,2.42
2022-09-20T19:41:35.484Z,1.80
2022-09-20T19:44:10.987Z,2.10
2022-09-20T19:46:56.501Z,1.80
2022-09-20T19:49:53.350Z,2.30
2022-09-20T19:52:19.960Z,2.10
2022-09-20T19:54:46.817Z,1.90
2022-09-20T19:57:19.841Z,1.98
2022-09-20T19:59:46.696Z,2.05
2022-09-20T20:02:13.228Z,2.28
2022-09-20T20:04:39.770Z,1.63
2022-09-20T20:07:24.322Z,2.20
2022-09-20T20:09:58.551Z,2.00
2022-09-20T20:12:34.530Z,1.70
2022-09-20T20:15:31.524Z,1.80
2022-09-20T20:18:06.595Z,2.08
2022-09-20T20:20:43.004Z,1.83
2022-09-20T20:23:37.020Z,2.20
2022-09-20T20:26:08.768Z,2.00
2022-09-20T20:28:35.785Z,1.88
2022-09-20T20:31:02.786Z,2.05
2022-09-20T20:33:30.474Z,1.75
2022-09-20T20:35:58.750Z,1.88
2022-09-20T20:38:26.635Z,2.08
2022-09-20T20:41:01.563Z,2.20
2022-09-20T20:43:27.890Z,1.92
2022-09-20T20:45:54.183Z,1.88
2022-09-20T20:48:20.478Z,1.40
2022-09-20T20:50:47.077Z,1.60
2022-09-20T20:53:13.391Z,2.20
2022-09-20T20:55:39.803Z,2.00
2022-09-20T20:58:06.166Z,1.63
2022-09-20T21:00:32.480Z,2.15
2022-09-20T21:03:02.288Z,1.80
2022-09-20T21:05:29.336Z,1.92
2022-09-20T21:07:55.879Z,1.90
2022-09-20T21:10:22.792Z,2.10
2022-09-20T21:12:49.702Z,1.80
2022-09-20T21:15:17.275Z,2.20
2022-09-20T21:17:50.374Z,2.03
2022-09-20T21:20:16.690Z,2.20
2022-09-20T21:22:42.979Z,2.03
2022-09-20T21:25:09.285Z,1.70
2022-09-20T21:27:35.574Z,1.90
2022-09-20T21:30:02.302Z,1.70
2022-09-20T21:32:28.695Z,2.03
2022-09-20T21:34:54.983Z,2.00
2022-09-20T21:37:21.420Z,2.28
2022-09-20T21:39:47.739Z,1.75
2022-09-20T21:42:14.025Z,1.90
2022-09-20T21:44:40.329Z,1.80
2022-09-20T21:47:06.731Z,1.77
2022-09-20T21:49:33.045Z,1.90
2022-09-20T21:51:59.371Z,1.60
2022-09-20T21:54:25.662Z,1.90
2022-09-20T21:56:51.997Z,1.73
2022-09-20T21:59:18.291Z,2.45
2022-09-20T22:04:12.152Z,2.50
2022-09-20T22:06:40.718Z,2.50
2022-09-20T22:09:15.869Z,1.80
2022-09-20T22:11:44.617Z,1.98
2022-09-20T22:14:12.039Z,2.03
2022-09-20T22:16:40.732Z,2.92
2022-09-20T22:19:10.353Z,2.70
2022-09-20T22:21:42.135Z,2.60
2022-09-20T22:24:10.057Z,2.60
2022-09-20T22:26:39.533Z,2.13
2022-09-20T22:29:06.492Z,2.17
2022-09-20T22:31:35.159Z,2.83
2022-09-20T22:34:03.762Z,2.85
2022-09-20T22:36:32.657Z,2.72
2022-09-20T22:38:58.943Z,3.58
2022-09-20T22:41:25.931Z,3.78
2022-09-20T22:43:52.232Z,3.10
2022-09-20T22:46:20.771Z,2.92
2022-09-20T22:48:48.032Z,3.20
2022-09-20T22:51:18.954Z,3.28
2022-09-20T22:53:46.381Z,2.97
2022-09-20T22:56:24.254Z,2.90
2022-09-20T22:58:59.051Z,2.90
2022-09-20T23:01:28.153Z,3.03
2022-09-20T23:04:19.094Z,2.90
2022-09-20T23:06:47.774Z,2.88
2022-09-20T23:09:16.710Z,2.80
2022-09-20T23:11:43.416Z,3.00
2022-09-20T23:14:14.844Z,2.78
2022-09-20T23:16:41.979Z,3.05
2022-09-20T23:19:09.482Z,2.92
2022-09-20T23:21:37.690Z,2.95
2022-09-20T23:24:06.707Z,2.55
2022-09-20T23:26:34.908Z,2.90
2022-09-20T23:29:04.409Z,2.80
2022-09-20T23:31:32.081Z,3.60
2022-09-20T23:34:00.134Z,3.50
2022-09-20T23:36:29.108Z,3.55
2022-09-20T23:38:56.009Z,3.25
2022-09-20T23:41:23.683Z,3.67
2022-09-20T23:43:50.470Z,3.83
2022-09-20T23:46:18.809Z,3.35
2022-09-20T23:48:45.817Z,3.25
2022-09-20T23:51:16.752Z,3.00
2022-09-20T23:53:43.417Z,2.80
2022-09-20T23:56:10.948Z,2.85
2022-09-20T23:58:39.501Z,2.58
